»·PEaware :: N1718G KSMF-KSJC

N1718G :: KSMF-KSJC

FLIGHT INFORMATION

Flight Status: Arrived
Operator: Privately registered:
United States
More flights under this callsign
Pilot: Spencer M. (27733)
Aircraft: CESSNA 172 SKYHAWK
(C172)
More flights by this aircraft type
Origin: KSMF Sacramento Intl
United States
Destination: KSJC Mineta San Jose Intl
United States
More flights between these airports :: More routes between these airports
Route: KSMF-KSJC
File this flight plan on PilotEdge
Remarks:
Altitude:
(Current/Filed)
3,500ft
Speed:
(Current/Filed)
115kts
Departed: 18-Feb-20 12:12 PM
Arrived: 18-Feb-20 12:55 PM
Distance/Time
Traveled:
82nm/0:43
Distance/Time
To Go:
Arrived

Flight Plot

Page will automatically refresh every two minutes.


Map Options




Map Legend


Flown Route
Filed Route
Departure Airport
Arrival Airport
Navaid (VOR, NDB)
Fix

Horizontal Profiles

Position Reports

Time Latitude Longitude Heading Altitude Ground
Speed
18-Feb-20 11:52 38.680735 -121.597817 0 20ft 0kts
18-Feb-20 11:53 38.680735 -121.597817 0 20ft 0kts
18-Feb-20 11:54 38.680735 -121.597817 0 20ft 0kts
18-Feb-20 11:55 38.680735 -121.597817 0 20ft 0kts
18-Feb-20 11:56 38.680735 -121.597817 0 20ft 0kts
18-Feb-20 11:57 38.680735 -121.597817 0 20ft 0kts
18-Feb-20 11:58 38.680735 -121.597817 0 20ft 0kts
18-Feb-20 11:59 38.680735 -121.597817 0 20ft 0kts
18-Feb-20 12:00 38.680735 -121.597817 0 20ft 0kts
18-Feb-20 12:01 38.680735 -121.597817 0 20ft 0kts
18-Feb-20 12:02 38.680983 -121.598375 349 20ft 10kts
18-Feb-20 12:03 38.683814 -121.598588 303 20ft 13kts
18-Feb-20 12:04 38.688815 -121.598764 1 23ft 21kts
18-Feb-20 12:05 38.695230 -121.598649 0 23ft 26kts
18-Feb-20 12:06 38.703153 -121.598520 0 23ft 28kts
18-Feb-20 12:07 38.707753 -121.599131 254 23ft 0kts
18-Feb-20 12:08 38.707753 -121.599131 254 23ft 0kts
18-Feb-20 12:09 38.707753 -121.599131 254 23ft 0kts
18-Feb-20 12:10 38.707717 -121.599334 257 23ft 0kts
18-Feb-20 12:11 38.704637 -121.601176 180 24ft 59kts
18-Feb-20 12:12 38.677908 -121.600388 176 614ft 108kts
18-Feb-20 12:13 38.647110 -121.600787 182 1283ft 112kts
18-Feb-20 12:14 38.615867 -121.604302 187 1885ft 114kts
18-Feb-20 12:15 38.583465 -121.606296 181 2390ft 118kts
18-Feb-20 12:16 38.550818 -121.607495 181 2889ft 117kts
18-Feb-20 12:17 38.518453 -121.610127 195 3387ft 116kts
18-Feb-20 12:18 38.485683 -121.622602 192 3425ft 125kts
18-Feb-20 12:19 38.452420 -121.631878 191 3422ft 121kts
18-Feb-20 12:20 38.419524 -121.640891 191 3422ft 121kts
18-Feb-20 12:21 38.385093 -121.650184 191 3427ft 128kts
18-Feb-20 12:22 38.351741 -121.666275 207 3425ft 129kts
18-Feb-20 12:23 38.318388 -121.683242 198 3425ft 129kts
18-Feb-20 12:24 38.283939 -121.696333 195 3426ft 129kts
18-Feb-20 12:25 38.248984 -121.706775 191 3426ft 129kts
18-Feb-20 12:26 38.213707 -121.716317 190 3426ft 129kts
18-Feb-20 12:27 38.178441 -121.725060 190 3419ft 130kts
18-Feb-20 12:28 38.142722 -121.733777 190 3380ft 129kts
18-Feb-20 12:29 38.108032 -121.742126 190 3373ft 119kts
18-Feb-20 12:30 38.076403 -121.749620 190 3368ft 113kts
18-Feb-20 12:31 38.045585 -121.756805 190 3368ft 112kts
18-Feb-20 12:32 38.012202 -121.764451 189 3379ft 128kts
18-Feb-20 12:33 37.976846 -121.772429 189 3437ft 126kts
18-Feb-20 12:34 37.945582 -121.779340 189 4223ft 107kts
18-Feb-20 12:35 37.913371 -121.788870 194 4396ft 131kts
18-Feb-20 12:36 37.877870 -121.800028 193 4396ft 130kts
18-Feb-20 12:37 37.843764 -121.810394 193 4391ft 124kts
18-Feb-20 12:38 37.810261 -121.820447 193 4391ft 123kts
18-Feb-20 12:39 37.776809 -121.830358 192 4391ft 123kts
18-Feb-20 12:40 37.743309 -121.840158 192 4391ft 123kts
18-Feb-20 12:41 37.709933 -121.849798 192 4391ft 123kts
18-Feb-20 12:42 37.676359 -121.859370 192 4391ft 123kts
18-Feb-20 12:43 37.642839 -121.868802 192 4391ft 123kts
18-Feb-20 12:44 37.609359 -121.878098 192 4391ft 123kts
18-Feb-20 12:45 37.575756 -121.887304 192 4391ft 123kts
18-Feb-20 12:46 37.542827 -121.896224 192 3946ft 121kts
18-Feb-20 12:47 37.509193 -121.905217 191 3348ft 125kts
18-Feb-20 12:48 37.474902 -121.913381 189 2697ft 127kts
18-Feb-20 12:50 37.439806 -121.920911 189 1998ft 128kts
18-Feb-20 12:51 37.404583 -121.928308 187 1332ft 126kts
18-Feb-20 12:52 37.379313 -121.918310 130 990ft 86kts
18-Feb-20 12:53 37.364896 -121.899879 151 753ft 63kts
18-Feb-20 12:54 37.351536 -121.911686 248 435ft 63kts
18-Feb-20 12:55 37.359169 -121.926008 318 51ft 29kts
18-Feb-20 12:56 37.362004 -121.931073 230 49ft 17kts
18-Feb-20 12:57 37.361771 -121.935207 76 49ft 0kts

Navigation Log

Ident Type
Flight plan parsing failed, navigation log unavailable